WetterOnline ( https://www.wetteronline.de )

Wetter aktuell Potsdam

Aktuelles Wetter: Potsdam (100m)

6-stündlich | Neueste Meldungen
Ortszeit Temperatur Wetter
Sa, 26.09. 8:00 9.3° C leichter Regen
Sa, 26.09. 2:00 11.1° C bedeckt
Fr, 25.09. 20:00 11.3° C wolkig
Fr, 25.09. 14:00 13.6° C bedeckt
Fr, 25.09. 8:00 12.3° C Regen
Fr, 25.09. 2:00 12.7° C wolkig
Do, 24.09. 20:00 17.1° C bedeckt
Do, 24.09. 14:00 20.9° C wolkig
Ortszeit Temperatur Wetter
Sa, 26.09. 13:30 9.8° C leichter Regen
Sa, 26.09. 13:20 9.8° C leichter Regen
Sa, 26.09. 13:10 9.8° C leichter Regen
Sa, 26.09. 13:00 9.9° C leichter Regen
Sa, 26.09. 12:50 9.9° C leichter Regen
Sa, 26.09. 12:40 10.0° C leichter Regen
Sa, 26.09. 12:30 10.1° C leichter Regen
Sa, 26.09. 12:00 10.2° C leichter Regen
Ortszeit Relative Feuchte Sichtweite
Sa, 26.09. 8:00 94% 20 km
Sa, 26.09. 2:00 82% 50 km
Fr, 25.09. 20:00 89% 60 km
Fr, 25.09. 14:00 91% 30 km
Fr, 25.09. 8:00 98% 4.5 km
Fr, 25.09. 2:00 76% 55 km
Do, 24.09. 20:00 47% 50 km
Do, 24.09. 14:00 48% 50 km
Ortszeit Relative Feuchte Sichtweite
Sa, 26.09. 13:30 95% 7 km
Sa, 26.09. 13:20 95% -
Sa, 26.09. 13:10 93% -
Sa, 26.09. 13:00 93% 12 km
Sa, 26.09. 12:50 93% -
Sa, 26.09. 12:40 92% -
Sa, 26.09. 12:30 91% 15 km
Sa, 26.09. 12:00 92% 22 km
Ortszeit Niederschlagsmenge Niederschlagsart
Sa, 26.09. 8:00 2 l/m2 in 12 Std. Regen
Sa, 26.09. 2:00 0.0 l/m2 in 6 Std. -
Fr, 25.09. 20:00 2 l/m2 in 12 Std. -
Fr, 25.09. 14:00 2 l/m2 in 6 Std. Regen
Fr, 25.09. 8:00 13 l/m2 in 12 Std. Regen
Fr, 25.09. 2:00 0.0 l/m2 in 6 Std. -
Do, 24.09. 20:00 0.1 l/m2 in 12 Std. -
Do, 24.09. 14:00 0.1 l/m2 in 6 Std. Regen
Ortszeit Niederschlagsmenge Niederschlagsart
Sa, 26.09. 13:30 1.0 l/m2 in 1 Std. -
Sa, 26.09. 13:20 keine Meldung -
Sa, 26.09. 13:10 keine Meldung -
Sa, 26.09. 13:00 0.6 l/m2 in 1 Std. Regen
Sa, 26.09. 12:50 keine Meldung -
Sa, 26.09. 12:40 keine Meldung -
Sa, 26.09. 12:30 0.1 l/m2 in 1 Std. -
Sa, 26.09. 12:00 0.1 l/m2 in 1 Std. -
Ortszeit Stärke Spitze Richtung
km/h Bft. km/h Grad Sektor
Sa, 26.09. 8:00 11 2 22 290° W
Sa, 26.09. 2:00 11 2 18 260° W
Fr, 25.09. 20:00 7 2 32 260° W
Fr, 25.09. 14:00 18 3 36 270° W
Fr, 25.09. 8:00 11 2 29 360° N
Fr, 25.09. 2:00 17 3 24 130° SO
Do, 24.09. 20:00 9 2 43 200° S
Do, 24.09. 14:00 22 4 47 250° W
Ortszeit Stärke Spitze Richtung
km/h Bft. km/h Grad Sektor
Sa, 26.09. 13:30 22 4 32 300° NW
Sa, 26.09. 13:20 22 4 - 300° NW
Sa, 26.09. 13:10 19 3 - 300° NW
Sa, 26.09. 13:00 19 3 35 290° W
Sa, 26.09. 12:50 19 3 - 290° W
Sa, 26.09. 12:40 24 4 - 290° W
Sa, 26.09. 12:30 22 4 36 290° W
Sa, 26.09. 12:00 14 3 25 290° W
Ortszeit Untergrenze Bedeckung Gattung
total tief tief mittel hoch
Sa, 26.09. 8:00 1500 m 8/8 7/8 Sc - -
Sa, 26.09. 2:00 1800 m 8/8 8/8 - - -
Fr, 25.09. 20:00 3600 m 5/8 5/8 - - -
Fr, 25.09. 14:00 270 m 8/8 7/8 Cu - -
Fr, 25.09. 8:00 90 m 8/8 5/8 St Ns -
Fr, 25.09. 2:00 2400 m 8/8 1/8 - - -
Do, 24.09. 20:00 6900 m 8/8 8/8 - - -
Do, 24.09. 14:00 1200 m 5/8 5/8 Cu - -
Ortszeit Bedeckungsgrad in Achtel und Wolkenuntergrenze
Sa, 26.09. 13:30 2(240m) 8(1320m)
Sa, 26.09. 13:20 2(240m) 7(1320m)
Sa, 26.09. 13:10 7(1350m)
Sa, 26.09. 13:00 7(1410m)
Sa, 26.09. 12:50 8(1380m)
Sa, 26.09. 12:40 8(1410m)
Sa, 26.09. 12:30 7(1440m)
Sa, 26.09. 12:00 7(1500m)
Ortszeit Luftdruck NN (hPa) Tendenz (hPa in 3 Std.)
Sa, 26.09. 8:00 997 - 0,1
Sa, 26.09. 2:00 997 - 0,6
Fr, 25.09. 20:00 997 + 0,2
Fr, 25.09. 14:00 997 0,0
Fr, 25.09. 8:00 997 - 2,2
Fr, 25.09. 2:00 1001 - 2,7
Do, 24.09. 20:00 1004 - 0,5
Do, 24.09. 14:00 1005 + 1,2
Ortszeit Luftdruck NN (hPa) Tendenz (hPa in 3 Std.)
Sa, 26.09. 13:30 995 - 1,4
Sa, 26.09. 13:20 995 keine Meldung
Sa, 26.09. 13:10 995 keine Meldung
Sa, 26.09. 13:00 995 - 1,2
Sa, 26.09. 12:50 995 keine Meldung
Sa, 26.09. 12:40 995 keine Meldung
Sa, 26.09. 12:30 995 - 1,3
Sa, 26.09. 12:00 996 - 0,9
Ortszeit Schneehöhe (cm)
Sa, 26.09. 8:00 0
Sa, 26.09. 2:00 -
Fr, 25.09. 20:00 -
Fr, 25.09. 14:00 0
Fr, 25.09. 8:00 0
Fr, 25.09. 2:00 -
Do, 24.09. 20:00 -
Do, 24.09. 14:00 0
Ortszeit Schneehöhe (cm)
Sa, 26.09. 13:30 -
Sa, 26.09. 13:20 -
Sa, 26.09. 13:10 -
Sa, 26.09. 13:00 -
Sa, 26.09. 12:50 -
Sa, 26.09. 12:40 -
Sa, 26.09. 12:30 -
Sa, 26.09. 12:00 -
Link zu dieser Seite / Seite empfehlen

Das Wetter in ...